createdAt,value
2022-09-15T00:00:17.977Z,7.00
2022-09-15T00:01:17.995Z,6.90
2022-09-15T00:02:18.072Z,7.10
2022-09-15T00:03:18.002Z,7.70
2022-09-15T00:04:17.926Z,7.60
2022-09-15T00:05:17.906Z,7.50
2022-09-15T00:06:17.886Z,7.60
2022-09-15T00:07:17.877Z,7.20
2022-09-15T00:08:17.888Z,7.80
2022-09-15T00:09:17.857Z,7.60
2022-09-15T00:10:17.846Z,7.40
2022-09-15T00:11:17.827Z,7.60
2022-09-15T00:12:17.827Z,8.10
2022-09-15T00:13:17.814Z,7.10
2022-09-15T00:14:17.794Z,7.10
2022-09-15T00:15:17.775Z,6.90
2022-09-15T00:16:17.784Z,6.80
2022-09-15T00:17:17.765Z,7.40
2022-09-15T00:18:17.755Z,7.40
2022-09-15T00:19:17.726Z,7.40
2022-09-15T00:20:17.718Z,7.50
2022-09-15T00:21:17.694Z,7.10
2022-09-15T00:22:17.693Z,7.00
2022-09-15T00:23:17.695Z,7.10
2022-09-15T00:24:17.656Z,7.70
2022-09-15T00:25:17.652Z,6.50
2022-09-15T00:26:17.637Z,7.40
2022-09-15T00:27:17.622Z,6.90
2022-09-15T00:28:17.633Z,7.20
2022-09-15T00:29:17.594Z,6.60
2022-09-15T00:30:17.583Z,7.50
2022-09-15T00:31:17.615Z,7.20
2022-09-15T00:32:17.563Z,7.50
2022-09-15T00:33:17.562Z,7.30
2022-09-15T00:34:17.544Z,7.30
2022-09-15T00:35:17.513Z,7.60
2022-09-15T00:36:17.505Z,7.00
2022-09-15T00:37:17.502Z,6.70
2022-09-15T00:38:17.493Z,7.20
2022-09-15T00:39:17.468Z,6.80
2022-09-15T00:40:17.499Z,6.70
2022-09-15T00:41:17.431Z,7.60
2022-09-15T00:42:17.429Z,7.40
2022-09-15T00:43:17.444Z,7.60
2022-09-15T00:44:17.402Z,7.20
2022-09-15T00:45:17.383Z,7.70
2022-09-15T00:46:17.434Z,7.50
2022-09-15T00:47:19.718Z,7.40
2022-09-15T00:48:17.358Z,7.00
2022-09-15T00:49:17.340Z,7.00
2022-09-15T00:50:17.321Z,7.20
2022-09-15T00:51:17.302Z,6.90
2022-09-15T00:52:17.307Z,6.60
2022-09-15T00:53:17.293Z,7.00
2022-09-15T00:54:17.281Z,7.10
2022-09-15T00:55:17.259Z,6.80
2022-09-15T00:56:17.239Z,7.50
2022-09-15T00:57:17.229Z,6.60
2022-09-15T00:58:17.230Z,7.20
2022-09-15T00:59:17.218Z,7.60
2022-09-15T01:00:17.188Z,7.10
2022-09-15T01:01:17.221Z,7.30
2022-09-15T01:02:17.180Z,7.00
2022-09-15T01:03:17.158Z,6.60
2022-09-15T01:04:17.150Z,6.50
2022-09-15T01:05:17.128Z,6.40
2022-09-15T01:06:17.117Z,6.00
2022-09-15T01:07:17.097Z,6.80
2022-09-15T01:08:17.112Z,6.90
2022-09-15T01:09:17.089Z,6.90
2022-09-15T01:10:17.057Z,6.80
2022-09-15T01:11:17.057Z,6.80
2022-09-15T01:12:17.038Z,6.30
2022-09-15T01:13:17.035Z,6.40
2022-09-15T01:14:17.026Z,6.20
2022-09-15T01:15:16.997Z,6.30
2022-09-15T01:16:17.022Z,6.00
2022-09-15T01:17:16.966Z,6.40
2022-09-15T01:18:16.976Z,6.20
2022-09-15T01:19:16.946Z,6.00
2022-09-15T01:20:16.934Z,6.00
2022-09-15T01:21:16.915Z,6.60
2022-09-15T01:22:16.896Z,6.30
2022-09-15T01:23:16.903Z,6.70
2022-09-15T01:24:16.885Z,6.50
2022-09-15T01:25:16.864Z,6.10
2022-09-15T01:26:16.845Z,6.40
2022-09-15T01:27:38.109Z,6.30
2022-09-15T01:28:17.846Z,6.80
2022-09-15T01:29:16.815Z,6.60
2022-09-15T01:30:16.795Z,6.90
2022-09-15T01:31:16.850Z,7.10
2022-09-15T01:32:16.775Z,6.10
2022-09-15T01:33:16.772Z,6.20
2022-09-15T01:34:16.753Z,7.00
2022-09-15T01:35:16.731Z,6.40
2022-09-15T01:36:16.723Z,6.60
2022-09-15T01:37:16.703Z,6.30
2022-09-15T01:38:16.725Z,6.30
2022-09-15T01:39:16.692Z,6.20
2022-09-15T01:40:16.716Z,6.50
2022-09-15T01:41:16.653Z,6.70
2022-09-15T01:42:16.641Z,5.50
2022-09-15T01:43:16.632Z,6.50
2022-09-15T01:44:16.631Z,6.30
2022-09-15T01:45:16.604Z,7.10
2022-09-15T01:46:16.669Z,7.20
2022-09-15T01:47:16.571Z,6.90
2022-09-15T01:48:16.571Z,7.20
2022-09-15T01:49:16.555Z,6.50
2022-09-15T01:50:16.541Z,7.30
2022-09-15T01:51:16.532Z,7.40
2022-09-15T01:52:16.518Z,6.20
2022-09-15T01:53:16.519Z,7.50
2022-09-15T01:54:16.500Z,6.30
2022-09-15T01:55:16.469Z,6.30
2022-09-15T01:56:16.460Z,6.10
2022-09-15T01:57:16.439Z,6.00
2022-09-15T01:58:16.469Z,6.40
2022-09-15T01:59:16.426Z,6.70
2022-09-15T02:00:16.413Z,6.40
2022-09-15T02:01:16.436Z,6.10
2022-09-15T02:02:16.404Z,6.50
2022-09-15T02:03:16.379Z,6.60
2022-09-15T02:04:16.360Z,6.80
2022-09-15T02:05:16.347Z,6.50
2022-09-15T02:06:16.319Z,6.90
2022-09-15T02:07:16.318Z,7.10
2022-09-15T02:08:16.308Z,7.00
2022-09-15T02:09:16.307Z,6.50
2022-09-15T02:10:16.279Z,6.60
2022-09-15T02:11:16.271Z,7.60
2022-09-15T02:12:16.255Z,6.90
2022-09-15T02:13:16.247Z,7.00
2022-09-15T02:14:16.237Z,6.30
2022-09-15T02:15:16.205Z,6.40
2022-09-15T02:16:16.219Z,6.20
2022-09-15T02:17:16.178Z,6.30
2022-09-15T02:18:16.178Z,6.40
2022-09-15T02:19:16.165Z,5.90
2022-09-15T02:20:16.146Z,6.50
2022-09-15T02:21:16.125Z,6.70
2022-09-15T02:22:16.116Z,7.50
2022-09-15T02:23:16.097Z,6.10
2022-09-15T02:24:16.106Z,6.50
2022-09-15T02:25:16.185Z,7.20
2022-09-15T02:26:16.067Z,6.40
2022-09-15T02:27:16.045Z,7.10
2022-09-15T02:28:16.035Z,6.90
2022-09-15T02:29:16.034Z,7.00
2022-09-15T02:30:16.004Z,7.50
2022-09-15T02:31:16.033Z,7.40
2022-09-15T02:32:15.994Z,6.80
2022-09-15T02:33:15.964Z,6.50
2022-09-15T02:34:15.985Z,7.00
2022-09-15T02:35:15.943Z,7.00
2022-09-15T02:36:15.935Z,7.20
2022-09-15T02:37:15.913Z,7.10
2022-09-15T02:38:15.912Z,6.50
2022-09-15T02:39:15.904Z,6.60
2022-09-15T02:40:15.918Z,7.10
2022-09-15T02:41:15.882Z,7.00
2022-09-15T02:42:15.842Z,5.90
2022-09-15T02:43:15.851Z,6.70
2022-09-15T02:44:15.840Z,7.40
2022-09-15T02:45:15.812Z,6.70
2022-09-15T02:46:15.836Z,7.40
2022-09-15T02:47:15.783Z,7.40
2022-09-15T02:48:15.761Z,7.80
2022-09-15T02:49:15.771Z,8.30
2022-09-15T02:50:15.740Z,7.20
2022-09-15T02:51:15.730Z,8.10
2022-09-15T02:52:15.719Z,8.20
2022-09-15T02:53:15.701Z,8.00
2022-09-15T02:54:15.702Z,7.90
2022-09-15T02:55:15.683Z,8.20
2022-09-15T02:56:15.659Z,8.10
2022-09-15T02:57:15.649Z,7.10
2022-09-15T02:58:15.629Z,7.90
2022-09-15T02:59:15.647Z,6.80
2022-09-15T03:00:15.608Z,8.60
2022-09-15T03:01:15.709Z,7.70
2022-09-15T03:02:15.606Z,7.50
2022-09-15T03:03:15.577Z,8.30
2022-09-15T03:04:15.568Z,8.20
2022-09-15T03:05:15.538Z,7.90
2022-09-15T03:06:15.527Z,7.70
2022-09-15T03:07:15.520Z,8.90
2022-09-15T03:08:15.498Z,7.70
2022-09-15T03:09:15.507Z,8.10
2022-09-15T03:10:15.476Z,7.60
2022-09-15T03:11:15.467Z,7.90
2022-09-15T03:12:15.458Z,8.60
2022-09-15T03:13:15.437Z,8.50
2022-09-15T03:14:15.430Z,9.30
2022-09-15T03:15:15.417Z,8.50
2022-09-15T03:16:15.442Z,8.30
2022-09-15T03:17:15.389Z,8.90
2022-09-15T03:18:15.365Z,8.90
2022-09-15T03:19:15.375Z,9.00
2022-09-15T03:20:15.358Z,8.00
2022-09-15T03:21:15.325Z,8.60
2022-09-15T03:22:15.318Z,8.40
2022-09-15T03:23:15.306Z,9.20
2022-09-15T03:24:15.304Z,9.30
2022-09-15T03:25:15.287Z,9.20
2022-09-15T03:26:15.265Z,9.00
2022-09-15T03:27:15.261Z,9.40
2022-09-15T03:28:15.243Z,8.00
2022-09-15T03:29:15.236Z,9.50
2022-09-15T03:30:15.212Z,9.60
2022-09-15T03:31:15.212Z,9.20
2022-09-15T03:32:15.185Z,9.20
2022-09-15T03:33:15.172Z,9.40
2022-09-15T03:34:15.164Z,9.00
2022-09-15T03:35:15.161Z,9.30
2022-09-15T03:36:15.132Z,9.40
2022-09-15T03:37:15.125Z,9.60
2022-09-15T03:38:15.105Z,9.60
2022-09-15T03:39:15.115Z,9.90
2022-09-15T03:40:15.104Z,10.10
2022-09-15T03:41:15.073Z,9.50
2022-09-15T03:42:15.051Z,9.80
2022-09-15T03:43:18.635Z,9.80
2022-09-15T03:44:15.043Z,9.50
2022-09-15T03:45:15.031Z,9.10
2022-09-15T03:46:15.026Z,8.70
2022-09-15T03:47:14.990Z,9.60
2022-09-15T03:48:14.973Z,9.30
2022-09-15T03:49:14.981Z,9.50
2022-09-15T03:50:14.951Z,9.60
2022-09-15T03:51:14.950Z,9.30
2022-09-15T03:52:14.920Z,9.70
2022-09-15T03:53:14.912Z,9.10
2022-09-15T03:54:14.909Z,8.80
2022-09-15T03:55:14.889Z,8.80
2022-09-15T03:56:14.870Z,8.90
2022-09-15T03:57:14.868Z,9.60
2022-09-15T03:58:14.839Z,9.70
2022-09-15T03:59:14.870Z,9.40
2022-09-15T04:00:14.821Z,10.30
2022-09-15T04:01:14.849Z,9.80
2022-09-15T04:02:14.871Z,10.10
2022-09-15T04:03:14.779Z,9.70
2022-09-15T04:04:14.768Z,8.90
2022-09-15T04:05:14.751Z,10.30
2022-09-15T04:06:14.737Z,10.40
2022-09-15T04:07:14.735Z,9.70
2022-09-15T04:08:14.710Z,10.20
2022-09-15T04:09:14.716Z,10.10
2022-09-15T04:10:14.679Z,9.40
2022-09-15T04:11:14.678Z,9.40
2022-09-15T04:12:14.657Z,9.70
2022-09-15T04:13:14.646Z,9.60
2022-09-15T04:14:14.649Z,9.20
2022-09-15T04:15:14.618Z,9.90
2022-09-15T04:16:14.681Z,9.70
2022-09-15T04:17:14.596Z,9.60
2022-09-15T04:18:14.577Z,9.50
2022-09-15T04:19:14.579Z,10.00
2022-09-15T04:20:14.547Z,9.00
2022-09-15T04:21:14.544Z,9.00
2022-09-15T04:22:17.862Z,8.80
2022-09-15T04:23:14.517Z,9.30
2022-09-15T04:24:14.644Z,9.00
2022-09-15T04:25:14.486Z,8.60
2022-09-15T04:26:14.474Z,9.40
2022-09-15T04:27:14.475Z,9.00
2022-09-15T04:28:14.445Z,9.20
2022-09-15T04:29:14.447Z,9.00
2022-09-15T04:30:14.425Z,9.00
2022-09-15T04:31:14.439Z,8.80
2022-09-15T04:32:14.394Z,8.10
2022-09-15T04:33:14.403Z,9.60
2022-09-15T04:34:14.389Z,9.40
2022-09-15T04:35:14.374Z,9.50
2022-09-15T04:36:14.346Z,10.00
2022-09-15T04:37:14.343Z,9.30
2022-09-15T04:38:14.313Z,8.60
2022-09-15T04:39:14.315Z,8.80
2022-09-15T04:40:14.359Z,8.40
2022-09-15T04:41:14.282Z,8.50
2022-09-15T04:42:14.277Z,9.50
2022-09-15T04:43:14.253Z,7.80
2022-09-15T04:44:14.253Z,9.00
2022-09-15T04:45:14.234Z,8.60
2022-09-15T04:46:14.235Z,9.20
2022-09-15T04:47:14.212Z,9.10
2022-09-15T04:48:14.181Z,9.10
2022-09-15T04:49:14.192Z,9.50
2022-09-15T04:50:14.163Z,9.40
2022-09-15T04:51:14.151Z,8.90
2022-09-15T04:52:14.131Z,9.20
2022-09-15T04:53:14.122Z,8.80
2022-09-15T04:54:14.180Z,9.40
2022-09-15T04:55:14.094Z,8.70
2022-09-15T04:56:14.092Z,9.30
2022-09-15T04:57:14.070Z,9.20
2022-09-15T04:58:14.050Z,8.60
2022-09-15T04:59:14.069Z,8.80
2022-09-15T05:00:14.029Z,9.30
2022-09-15T05:01:14.099Z,8.40
2022-09-15T05:02:14.051Z,8.20
2022-09-15T05:03:14.010Z,8.50
2022-09-15T05:04:14.006Z,9.60
2022-09-15T05:05:13.968Z,8.70
2022-09-15T05:06:13.950Z,9.40
2022-09-15T05:07:13.939Z,8.80
2022-09-15T05:08:13.931Z,8.90
2022-09-15T05:09:13.929Z,8.40
2022-09-15T05:10:13.898Z,8.60
2022-09-15T05:11:13.879Z,8.00
2022-09-15T05:12:13.888Z,7.90
2022-09-15T05:13:13.857Z,8.30
2022-09-15T05:14:13.869Z,8.50
2022-09-15T05:15:13.846Z,8.60
2022-09-15T05:16:13.878Z,8.30
2022-09-15T05:17:13.808Z,8.00
2022-09-15T05:18:13.788Z,8.70
2022-09-15T05:19:13.807Z,8.10
2022-09-15T05:20:13.777Z,8.40
2022-09-15T05:21:13.745Z,8.80
2022-09-15T05:22:13.748Z,8.20
2022-09-15T05:23:13.728Z,8.80
2022-09-15T05:24:13.728Z,8.00
2022-09-15T05:25:13.697Z,8.20
2022-09-15T05:26:13.696Z,8.20
2022-09-15T05:27:13.698Z,8.50
2022-09-15T05:28:13.668Z,8.10
2022-09-15T05:29:13.658Z,8.30
2022-09-15T05:30:36.828Z,8.80
2022-09-15T05:31:14.663Z,8.70
2022-09-15T05:32:13.605Z,8.20
2022-09-15T05:33:13.603Z,8.70
2022-09-15T05:34:13.596Z,8.30
2022-09-15T05:35:13.564Z,9.00
2022-09-15T05:36:13.567Z,8.00
2022-09-15T05:37:13.536Z,8.20
2022-09-15T05:38:13.533Z,8.50
2022-09-15T05:39:13.524Z,8.50
2022-09-15T05:40:13.555Z,8.30
2022-09-15T05:41:13.495Z,8.20
2022-09-15T05:42:13.483Z,8.70
2022-09-15T05:43:13.464Z,9.00
2022-09-15T05:44:13.472Z,7.80
2022-09-15T05:45:13.433Z,7.90
2022-09-15T05:46:13.449Z,8.30
2022-09-15T05:47:13.413Z,8.10
2022-09-15T05:48:13.410Z,8.30
2022-09-15T05:49:13.392Z,8.60
2022-09-15T05:50:13.382Z,8.30
2022-09-15T05:51:13.372Z,8.30
2022-09-15T05:52:13.352Z,8.40
2022-09-15T05:53:13.340Z,8.70
2022-09-15T05:54:13.331Z,8.50
2022-09-15T05:55:13.321Z,8.70
2022-09-15T05:56:13.300Z,8.70
2022-09-15T05:57:13.280Z,9.00
2022-09-15T05:58:13.272Z,8.60
2022-09-15T05:59:13.264Z,8.70
2022-09-15T06:00:13.249Z,8.70
2022-09-15T06:01:13.230Z,8.40
2022-09-15T06:02:13.261Z,7.90
2022-09-15T06:03:13.257Z,8.30
2022-09-15T06:04:13.202Z,8.50
2022-09-15T06:05:13.182Z,8.70
2022-09-15T06:06:13.171Z,8.20
2022-09-15T06:07:13.151Z,8.90
2022-09-15T06:08:13.149Z,9.60
2022-09-15T06:09:13.142Z,9.60
2022-09-15T06:10:13.128Z,8.80
2022-09-15T06:11:13.098Z,8.70
2022-09-15T06:12:13.098Z,8.60
2022-09-15T06:13:13.080Z,8.90
2022-09-15T06:14:13.089Z,8.80
2022-09-15T06:15:13.051Z,9.30
2022-09-15T06:16:13.138Z,9.10
2022-09-15T06:17:13.047Z,8.80
2022-09-15T06:18:13.019Z,8.90
2022-09-15T06:19:13.019Z,9.10
2022-09-15T06:20:13.000Z,9.10
2022-09-15T06:21:12.976Z,8.20
2022-09-15T06:22:12.968Z,9.30
2022-09-15T06:23:12.946Z,9.50
2022-09-15T06:24:12.947Z,9.10
2022-09-15T06:25:12.926Z,9.60
2022-09-15T06:26:12.922Z,9.20
2022-09-15T06:27:12.906Z,9.10
2022-09-15T06:28:12.885Z,8.90
2022-09-15T06:29:12.886Z,8.90
2022-09-15T06:30:12.862Z,10.30
2022-09-15T06:31:12.845Z,8.90
2022-09-15T06:32:12.874Z,10.00
2022-09-15T06:33:12.819Z,10.10
2022-09-15T06:34:12.834Z,9.70
2022-09-15T06:35:12.792Z,9.60
2022-09-15T06:36:12.782Z,8.90
2022-09-15T06:37:12.789Z,8.30
2022-09-15T06:38:12.756Z,9.30
2022-09-15T06:39:12.765Z,9.10
2022-09-15T06:40:12.786Z,9.70
2022-09-15T06:41:12.713Z,9.40
2022-09-15T06:42:14.025Z,9.40
2022-09-15T06:43:12.702Z,9.40
2022-09-15T06:44:12.687Z,9.50
2022-09-15T06:45:12.674Z,8.90
2022-09-15T06:46:12.737Z,8.50
2022-09-15T06:47:12.643Z,8.80
2022-09-15T06:48:24.410Z,8.80
2022-09-15T06:49:13.633Z,8.10
2022-09-15T06:50:12.602Z,8.50
2022-09-15T06:51:12.596Z,8.30
2022-09-15T06:52:12.572Z,9.00
2022-09-15T06:53:12.562Z,8.70
2022-09-15T06:54:12.569Z,8.60
2022-09-15T06:55:12.541Z,8.20
2022-09-15T06:56:12.528Z,8.40
2022-09-15T06:57:12.522Z,9.30
2022-09-15T06:58:12.502Z,9.00
2022-09-15T06:59:12.504Z,8.70
2022-09-15T07:00:12.483Z,9.30
2022-09-15T07:01:12.468Z,8.80
2022-09-15T07:02:12.554Z,9.20
2022-09-15T07:03:12.585Z,9.40
2022-09-15T07:04:12.444Z,9.30
2022-09-15T07:05:12.413Z,9.50
2022-09-15T07:06:12.402Z,9.60
2022-09-15T07:07:12.389Z,9.40
2022-09-15T07:08:12.369Z,9.10
2022-09-15T07:09:12.377Z,7.80
2022-09-15T07:10:12.353Z,8.00
2022-09-15T07:11:12.342Z,8.60
2022-09-15T07:12:12.320Z,7.90
2022-09-15T07:13:12.345Z,9.00
2022-09-15T07:14:12.299Z,8.30
2022-09-15T07:15:12.280Z,8.20
2022-09-15T07:16:12.348Z,8.10
2022-09-15T07:17:12.270Z,8.50
2022-09-15T07:18:12.247Z,8.20
2022-09-15T07:19:12.258Z,8.60
2022-09-15T07:20:12.216Z,8.70
2022-09-15T07:21:12.219Z,8.50
2022-09-15T07:22:12.187Z,7.90
2022-09-15T07:23:12.188Z,8.60
2022-09-15T07:24:12.183Z,7.90
2022-09-15T07:25:12.148Z,8.50
2022-09-15T07:26:12.138Z,8.30
2022-09-15T07:27:12.128Z,7.80
2022-09-15T07:28:12.115Z,8.10
2022-09-15T07:29:12.118Z,7.70
2022-09-15T07:30:12.094Z,8.00
2022-09-15T07:31:12.122Z,7.90
2022-09-15T07:32:12.057Z,7.50
2022-09-15T07:33:12.045Z,7.50
2022-09-15T07:34:12.051Z,7.60
2022-09-15T07:35:12.018Z,7.80
2022-09-15T07:36:12.006Z,8.00
2022-09-15T07:37:11.995Z,7.50
2022-09-15T07:38:11.976Z,7.10
2022-09-15T07:39:11.988Z,8.80
2022-09-15T07:40:11.996Z,7.20
2022-09-15T07:41:11.949Z,7.50
2022-09-15T07:42:11.917Z,7.40
2022-09-15T07:43:11.909Z,7.40
2022-09-15T07:44:11.917Z,7.90
2022-09-15T07:45:11.896Z,6.40
2022-09-15T07:46:11.909Z,7.80
2022-09-15T07:47:11.854Z,7.30
2022-09-15T07:48:11.847Z,7.70
2022-09-15T07:49:11.854Z,7.50
2022-09-15T07:50:11.816Z,6.70
2022-09-15T07:51:11.806Z,7.00
2022-09-15T07:52:11.786Z,6.90
2022-09-15T07:53:11.788Z,6.50
2022-09-15T07:54:11.784Z,6.70
2022-09-15T07:55:11.804Z,7.40
2022-09-15T07:56:11.735Z,6.70
2022-09-15T07:57:11.724Z,7.10
2022-09-15T07:58:11.712Z,7.40
2022-09-15T07:59:11.722Z,7.20
2022-09-15T08:00:11.682Z,6.60
2022-09-15T08:01:11.743Z,7.00
2022-09-15T08:02:11.665Z,7.70
2022-09-15T08:03:11.664Z,7.30
2022-09-15T08:04:11.643Z,6.80
2022-09-15T08:05:11.634Z,6.80
2022-09-15T08:06:11.602Z,5.80
2022-09-15T08:07:11.601Z,5.00
2022-09-15T08:08:11.576Z,5.50
2022-09-15T08:09:11.571Z,5.20
2022-09-15T08:10:11.559Z,5.50
2022-09-15T08:11:16.362Z,5.50
2022-09-15T08:12:12.530Z,6.00
2022-09-15T08:13:11.510Z,5.70
2022-09-15T08:14:11.512Z,6.20
2022-09-15T08:15:11.480Z,5.60
2022-09-15T08:16:11.525Z,6.40
2022-09-15T08:17:11.852Z,6.10
2022-09-15T08:18:11.450Z,5.60
2022-09-15T08:19:11.451Z,5.50
2022-09-15T08:20:11.431Z,5.80
2022-09-15T08:21:11.403Z,5.60
2022-09-15T08:22:11.401Z,5.50
2022-09-15T08:23:11.379Z,5.30
2022-09-15T08:24:11.388Z,5.10
2022-09-15T08:25:11.349Z,4.90
2022-09-15T08:26:14.125Z,4.20
2022-09-15T08:27:11.328Z,4.60
2022-09-15T08:28:11.320Z,4.10
2022-09-15T08:29:11.320Z,4.20
2022-09-15T08:30:11.289Z,4.00
2022-09-15T08:31:11.430Z,4.50
2022-09-15T08:32:11.267Z,4.70
2022-09-15T08:33:11.248Z,4.80
2022-09-15T08:34:11.248Z,4.70
2022-09-15T08:35:11.227Z,4.50
2022-09-15T08:36:11.208Z,4.90
2022-09-15T08:37:11.197Z,5.00
2022-09-15T08:38:11.177Z,4.20
2022-09-15T08:39:11.177Z,4.50
2022-09-15T08:40:11.220Z,4.30
2022-09-15T08:41:11.138Z,3.90
2022-09-15T08:42:11.138Z,3.80
2022-09-15T08:43:11.129Z,3.50
2022-09-15T08:44:11.118Z,3.40
2022-09-15T08:45:11.087Z,4.20
2022-09-15T08:46:11.138Z,4.20
2022-09-15T08:47:11.067Z,3.80
2022-09-15T08:48:11.049Z,3.60
2022-09-15T08:49:11.057Z,4.20
2022-09-15T08:50:11.021Z,4.50
2022-09-15T08:51:11.017Z,4.00
2022-09-15T08:52:11.003Z,3.60
2022-09-15T08:53:11.004Z,3.10
2022-09-15T08:54:10.977Z,3.20
2022-09-15T08:55:10.947Z,3.10
2022-09-15T08:56:10.943Z,2.90
2022-09-15T08:57:10.915Z,2.80
2022-09-15T08:58:10.943Z,2.80
2022-09-15T08:59:10.904Z,2.60
2022-09-15T09:00:10.914Z,2.40
2022-09-15T09:01:10.928Z,2.40
2022-09-15T09:02:10.906Z,2.90
2022-09-15T09:03:10.903Z,2.60
2022-09-15T09:04:10.853Z,2.20
2022-09-15T09:05:10.816Z,2.10
2022-09-15T09:06:10.795Z,2.20
2022-09-15T09:07:10.784Z,2.50
2022-09-15T09:08:10.785Z,1.90
2022-09-15T09:09:10.770Z,1.80
2022-09-15T09:10:10.744Z,1.80
2022-09-15T09:11:10.725Z,1.60
2022-09-15T09:12:10.720Z,1.90
2022-09-15T09:13:10.704Z,2.00
2022-09-15T09:14:10.702Z,1.60
2022-09-15T09:15:10.690Z,1.70
2022-09-15T09:16:10.722Z,1.90
2022-09-15T09:17:10.653Z,1.90
2022-09-15T09:18:10.654Z,1.90
2022-09-15T09:19:10.633Z,1.70
2022-09-15T09:20:10.622Z,2.20
2022-09-15T09:21:10.594Z,2.80
2022-09-15T09:22:10.592Z,2.30
2022-09-15T09:23:10.573Z,2.60
2022-09-15T09:24:10.582Z,2.60
2022-09-15T09:25:26.142Z,2.20
2022-09-15T09:26:11.543Z,2.80
2022-09-15T09:27:10.521Z,1.80
2022-09-15T09:28:10.525Z,1.40
2022-09-15T09:29:10.500Z,1.40
2022-09-15T09:30:10.486Z,1.50
2022-09-15T09:31:10.520Z,1.40
2022-09-15T09:32:10.453Z,1.50
2022-09-15T09:33:10.443Z,1.30
2022-09-15T09:34:10.440Z,1.50
2022-09-15T09:35:10.421Z,1.00
2022-09-15T09:36:10.401Z,1.30
2022-09-15T09:37:10.381Z,1.60
2022-09-15T09:38:10.381Z,1.30
2022-09-15T09:39:10.372Z,1.30
2022-09-15T09:40:10.394Z,1.20
2022-09-15T09:41:10.330Z,1.20
2022-09-15T09:42:10.320Z,1.30
2022-09-15T09:43:10.310Z,1.20
2022-09-15T09:44:10.312Z,0.80
2022-09-15T09:45:10.279Z,1.20
2022-09-15T09:46:10.308Z,1.00
2022-09-15T09:47:10.250Z,1.20
2022-09-15T09:48:10.250Z,1.00
2022-09-15T09:49:10.248Z,1.10
2022-09-15T09:50:10.220Z,1.70
2022-09-15T09:51:10.202Z,1.70
2022-09-15T09:52:10.201Z,1.00
2022-09-15T09:53:10.179Z,0.90
2022-09-15T09:54:10.187Z,1.10
2022-09-15T09:55:10.158Z,0.70
2022-09-15T09:56:10.138Z,0.90
2022-09-15T09:57:10.128Z,1.00
2022-09-15T09:58:10.118Z,1.20
2022-09-15T09:59:10.108Z,2.40
2022-09-15T10:00:10.087Z,2.10
2022-09-15T10:01:10.127Z,2.30
2022-09-15T10:02:10.078Z,2.20
2022-09-15T10:03:10.047Z,1.30
2022-09-15T10:04:10.043Z,1.00
2022-09-15T10:05:10.085Z,1.20
2022-09-15T10:06:10.077Z,0.80
2022-09-15T10:07:10.075Z,0.90
2022-09-15T10:08:10.077Z,0.70
2022-09-15T10:09:10.077Z,1.00
2022-09-15T10:10:09.957Z,0.80
2022-09-15T10:11:09.939Z,1.50
2022-09-15T10:12:09.935Z,1.10
2022-09-15T10:13:09.927Z,1.00
2022-09-15T10:14:09.907Z,1.20
2022-09-15T10:15:09.914Z,1.20
2022-09-15T10:16:09.970Z,0.90
2022-09-15T10:17:09.865Z,0.80
2022-09-15T10:18:09.858Z,0.90
2022-09-15T10:19:09.845Z,0.50
2022-09-15T10:20:09.850Z,0.70
2022-09-15T10:21:09.805Z,0.60
2022-09-15T10:22:09.807Z,0.70
2022-09-15T10:23:09.778Z,0.80
2022-09-15T10:24:09.795Z,0.80
2022-09-15T10:25:09.766Z,0.60
2022-09-15T10:26:09.744Z,0.60
2022-09-15T10:27:09.736Z,0.80
2022-09-15T10:28:09.718Z,0.70
2022-09-15T10:29:09.706Z,0.90
2022-09-15T10:30:09.708Z,0.70
2022-09-15T10:31:09.682Z,0.50
2022-09-15T10:32:09.773Z,0.70
2022-09-15T10:33:09.665Z,0.70
2022-09-15T10:34:09.646Z,0.80
2022-09-15T10:35:09.632Z,0.70
2022-09-15T10:36:09.636Z,0.60
2022-09-15T10:37:09.596Z,0.70
2022-09-15T10:38:09.583Z,0.90
2022-09-15T10:39:09.575Z,0.90
2022-09-15T10:40:09.602Z,0.80
2022-09-15T10:41:09.575Z,1.00
2022-09-15T10:42:09.536Z,1.00
2022-09-15T10:43:09.523Z,0.80
2022-09-15T10:44:09.504Z,0.80
2022-09-15T10:45:09.495Z,1.00
2022-09-15T10:46:09.523Z,0.70
2022-09-15T10:47:09.476Z,0.80
2022-09-15T10:48:09.453Z,0.70
2022-09-15T10:49:09.444Z,0.70
2022-09-15T10:50:09.463Z,0.90
2022-09-15T10:51:09.435Z,1.20
2022-09-15T10:52:09.414Z,1.00
2022-09-15T10:53:09.393Z,1.40
2022-09-15T10:54:09.381Z,1.40
2022-09-15T10:55:09.374Z,1.30
2022-09-15T10:56:09.352Z,1.00
2022-09-15T10:57:09.353Z,1.10
2022-09-15T10:58:09.322Z,0.90
2022-09-15T10:59:09.313Z,0.90
2022-09-15T11:00:09.302Z,0.70
2022-09-15T11:01:09.412Z,0.90
2022-09-15T11:02:09.338Z,0.80
2022-09-15T11:03:09.264Z,1.00
2022-09-15T11:04:09.244Z,0.80
2022-09-15T11:05:09.252Z,1.00
2022-09-15T11:06:09.221Z,0.90
2022-09-15T11:07:09.233Z,1.10
2022-09-15T11:08:09.203Z,0.90
2022-09-15T11:09:09.212Z,1.20
2022-09-15T11:10:09.182Z,0.80
2022-09-15T11:11:09.172Z,0.90
2022-09-15T11:12:09.152Z,0.80
2022-09-15T11:13:09.142Z,1.20
2022-09-15T11:14:09.119Z,1.10
2022-09-15T11:15:09.111Z,0.90
2022-09-15T11:16:09.165Z,0.70
2022-09-15T11:17:09.070Z,1.00
2022-09-15T11:18:09.090Z,0.80
2022-09-15T11:19:09.061Z,1.20
2022-09-15T11:20:09.051Z,0.70
2022-09-15T11:21:09.020Z,0.80
2022-09-15T11:22:09.020Z,1.00
2022-09-15T11:23:09.010Z,0.90
2022-09-15T11:24:08.980Z,0.80
2022-09-15T11:25:08.971Z,0.80
2022-09-15T11:26:08.969Z,0.60
2022-09-15T11:27:08.941Z,0.70
2022-09-15T11:28:08.959Z,0.70
2022-09-15T11:29:08.920Z,1.00
2022-09-15T11:30:08.970Z,0.60
2022-09-15T11:31:08.982Z,1.00
2022-09-15T11:32:08.883Z,1.00
2022-09-15T11:33:08.871Z,0.80
2022-09-15T11:34:08.889Z,0.90
2022-09-15T11:35:08.839Z,1.00
2022-09-15T11:36:08.838Z,0.90
2022-09-15T11:37:08.809Z,0.60
2022-09-15T11:38:12.808Z,0.90
2022-09-15T11:39:08.808Z,0.80
2022-09-15T11:40:08.851Z,0.70
2022-09-15T11:41:08.766Z,0.80
2022-09-15T11:42:08.757Z,0.80
2022-09-15T11:43:08.733Z,0.60
2022-09-15T11:44:08.745Z,0.60
2022-09-15T11:45:08.705Z,0.50
2022-09-15T11:46:08.722Z,0.50
2022-09-15T11:47:08.678Z,0.80
2022-09-15T11:48:08.668Z,0.70
2022-09-15T11:49:08.648Z,0.70
2022-09-15T11:50:08.668Z,0.60
2022-09-15T11:51:08.626Z,0.80
2022-09-15T11:52:08.617Z,0.80
2022-09-15T11:53:08.606Z,0.80
2022-09-15T11:54:08.588Z,0.70
2022-09-15T11:55:08.578Z,0.60
2022-09-15T11:56:08.558Z,0.70
2022-09-15T11:57:08.547Z,0.70
2022-09-15T11:58:08.539Z,0.70
2022-09-15T11:59:08.526Z,0.80
2022-09-15T12:00:08.546Z,0.80
2022-09-15T12:01:08.488Z,0.60
2022-09-15T12:02:08.527Z,0.90
2022-09-15T12:03:08.523Z,0.80
2022-09-15T12:04:08.466Z,0.70
2022-09-15T12:05:08.441Z,0.80
2022-09-15T12:06:08.436Z,0.70
2022-09-15T12:07:11.003Z,1.00
2022-09-15T12:08:09.416Z,1.00
2022-09-15T12:09:08.577Z,1.40
2022-09-15T12:10:08.378Z,1.10
2022-09-15T12:11:08.366Z,1.20
2022-09-15T12:12:08.376Z,0.90
2022-09-15T12:13:08.332Z,0.90
2022-09-15T12:14:08.317Z,0.90
2022-09-15T12:15:08.318Z,1.10
2022-09-15T12:16:08.348Z,1.00
2022-09-15T12:17:08.277Z,0.90
2022-09-15T12:18:27.289Z,1.10
2022-09-15T12:19:09.254Z,1.50
2022-09-15T12:20:08.243Z,1.10
2022-09-15T12:21:08.244Z,1.30
2022-09-15T12:22:08.215Z,1.40
2022-09-15T12:23:08.204Z,1.30
2022-09-15T12:24:08.194Z,1.00
2022-09-15T12:25:08.175Z,1.00
2022-09-15T12:26:08.163Z,0.90
2022-09-15T12:27:08.164Z,1.00
2022-09-15T12:28:08.146Z,1.10
2022-09-15T12:29:08.124Z,0.90
2022-09-15T12:30:08.127Z,0.80
2022-09-15T12:31:08.133Z,1.00
2022-09-15T12:32:08.096Z,0.90
2022-09-15T12:33:08.082Z,0.80
2022-09-15T12:34:08.074Z,0.80
2022-09-15T12:35:12.797Z,1.00
2022-09-15T12:36:09.034Z,0.80
2022-09-15T12:37:08.035Z,0.70
2022-09-15T12:38:08.015Z,0.90
2022-09-15T12:39:07.992Z,0.90
2022-09-15T12:40:08.107Z,1.00
2022-09-15T12:41:07.971Z,0.80
2022-09-15T12:42:07.963Z,1.00
2022-09-15T12:43:07.952Z,0.90
2022-09-15T12:44:07.922Z,0.60
2022-09-15T12:45:07.916Z,0.90
2022-09-15T12:46:07.960Z,0.90
2022-09-15T12:47:07.892Z,0.90
2022-09-15T12:48:07.891Z,1.10
2022-09-15T12:49:07.863Z,1.00
2022-09-15T12:50:07.853Z,0.90
2022-09-15T12:51:07.834Z,1.00
2022-09-15T12:52:07.831Z,1.00
2022-09-15T12:53:07.819Z,1.00
2022-09-15T12:54:07.802Z,0.90
2022-09-15T12:55:07.791Z,1.00
2022-09-15T12:56:07.773Z,1.00
2022-09-15T12:57:07.760Z,1.20
2022-09-15T12:58:07.776Z,1.00
2022-09-15T12:59:07.733Z,1.00
2022-09-15T13:00:07.742Z,1.00
2022-09-15T13:01:18.050Z,1.10
2022-09-15T13:02:08.736Z,1.00
2022-09-15T13:03:07.777Z,1.20
2022-09-15T13:04:07.759Z,1.40
2022-09-15T13:05:07.657Z,1.20
2022-09-15T13:06:07.640Z,1.00
2022-09-15T13:07:09.788Z,1.20
2022-09-15T13:08:07.610Z,1.00
2022-09-15T13:09:07.600Z,1.20
2022-09-15T13:10:07.620Z,1.00
2022-09-15T13:11:07.580Z,0.80
2022-09-15T13:12:07.569Z,1.00
2022-09-15T13:13:07.550Z,1.30
2022-09-15T13:14:07.546Z,1.30
2022-09-15T13:15:07.529Z,1.20
2022-09-15T13:16:07.564Z,1.20
2022-09-15T13:17:07.497Z,1.50
2022-09-15T13:18:07.489Z,1.10